Archival Weather

Heathrow

Heathrow, United Kingdom (EGLL)

Report from: Thursday, June 23, 2022 3:50 PM BST
Current time: Tuesday, August 16, 2022 9:09 AM BST

Current weather
Weather history
Weather forecast

Temperature24.0°C (75.2°F)
Dew point11.0°C (51.8°F)
Winds 4 kts (2.1 m/s, 4.6 mph) Vrb
Winds variableWinds variable from Northeast (40°) to West-Northwest (300°)
Visibility6.2 mi. (10 km)
Clouds Sky clear
Altimeter29.77 in.Hg (1008 mB)
Relative humidity44 %
Density altitude1,407 ft. (429 m)
Remarks Fully automated report
No clouds detected
No significant changes expected in the next two hours
Flight conditions Visual Meteorological Conditions
Raw dataEGLL 231450Z AUTO 35004KT 300V040 9999 NCD 24/11 Q1008 NOSIG
An error has occurred. This application may no longer respond until reloaded. Reload 🗙